Severomorsk, Russia
Current Conditions -  °F | °C
As of 6:30 PM on Friday 19 Dec 2014 (Local Time) from ULMM Reporting Station
Clear Clear  
Wind Chill:   Ceiling: Unl
Heat Index:   Visibility: 6mi
Dew Point:   Wind: 0mph
Humidity: 85%   Direction: NA
Pressure: 29.18"   Gusts: NA
Location:  69.07°N, 33.42°E
Report Text: ULMM 191530Z 00000MPS CAVOK M13/M15 Q0988 NOSIG RMK QFE734 31590239
Loading
Personal Weather Stations






























Interactive Weather Map New forecast layout! Learn more

10-Day Weather Forecast

Advertisements
Track Severe Weather on mobile